sensor_id;sensor_type;location;lat;lon;timestamp;temperature;humidity
13848;DHT22;6994;49.752;6.094;2024-02-26T00:01:17;6.90;99.90
13848;DHT22;6994;49.752;6.094;2024-02-26T00:03:45;6.90;99.90
13848;DHT22;6994;49.752;6.094;2024-02-26T00:06:12;6.90;99.90
13848;DHT22;6994;49.752;6.094;2024-02-26T00:08:40;6.90;99.90
13848;DHT22;6994;49.752;6.094;2024-02-26T00:11:07;6.90;99.90
13848;DHT22;6994;49.752;6.094;2024-02-26T00:13:34;6.80;99.90
13848;DHT22;6994;49.752;6.094;2024-02-26T00:16:02;6.80;99.90
13848;DHT22;6994;49.752;6.094;2024-02-26T00:18:28;6.80;99.90
13848;DHT22;6994;49.752;6.094;2024-02-26T00:20:56;6.80;99.90
13848;DHT22;6994;49.752;6.094;2024-02-26T00:23:23;6.80;99.90
13848;DHT22;6994;49.752;6.094;2024-02-26T00:25:50;6.80;99.90
13848;DHT22;6994;49.752;6.094;2024-02-26T00:28:17;6.70;99.90
13848;DHT22;6994;49.752;6.094;2024-02-26T00:30:45;6.80;99.90
13848;DHT22;6994;49.752;6.094;2024-02-26T00:33:16;6.70;99.90
13848;DHT22;6994;49.752;6.094;2024-02-26T00:35:43;6.80;99.90
13848;DHT22;6994;49.752;6.094;2024-02-26T00:38:10;6.80;99.90
13848;DHT22;6994;49.752;6.094;2024-02-26T00:40:37;6.70;99.90
13848;DHT22;6994;49.752;6.094;2024-02-26T00:43:04;6.70;99.90
13848;DHT22;6994;49.752;6.094;2024-02-26T00:45:32;6.90;99.90
13848;DHT22;6994;49.752;6.094;2024-02-26T00:47:59;7.00;99.90
13848;DHT22;6994;49.752;6.094;2024-02-26T00:50:26;7.20;99.90
13848;DHT22;6994;49.752;6.094;2024-02-26T00:52:53;7.20;99.90
13848;DHT22;6994;49.752;6.094;2024-02-26T00:55:21;7.20;99.90
13848;DHT22;6994;49.752;6.094;2024-02-26T00:57:49;7.20;99.90
13848;DHT22;6994;49.752;6.094;2024-02-26T01:00:16;7.20;99.90
13848;DHT22;6994;49.752;6.094;2024-02-26T01:02:44;7.10;99.90
13848;DHT22;6994;49.752;6.094;2024-02-26T01:05:12;6.90;99.90
13848;DHT22;6994;49.752;6.094;2024-02-26T01:07:40;6.90;99.90
13848;DHT22;6994;49.752;6.094;2024-02-26T01:10:07;6.90;99.90
13848;DHT22;6994;49.752;6.094;2024-02-26T01:12:34;6.80;99.90
13848;DHT22;6994;49.752;6.094;2024-02-26T01:15:02;6.80;99.90
13848;DHT22;6994;49.752;6.094;2024-02-26T01:17:28;6.80;99.90
13848;DHT22;6994;49.752;6.094;2024-02-26T01:19:56;6.70;99.90
13848;DHT22;6994;49.752;6.094;2024-02-26T01:22:23;6.70;99.90
13848;DHT22;6994;49.752;6.094;2024-02-26T01:24:51;6.70;99.90
13848;DHT22;6994;49.752;6.094;2024-02-26T01:27:18;6.70;99.90
13848;DHT22;6994;49.752;6.094;2024-02-26T01:29:45;6.60;99.90
13848;DHT22;6994;49.752;6.094;2024-02-26T01:32:12;6.80;99.90
13848;DHT22;6994;49.752;6.094;2024-02-26T01:34:40;6.90;99.90
13848;DHT22;6994;49.752;6.094;2024-02-26T01:37:07;6.90;99.90
13848;DHT22;6994;49.752;6.094;2024-02-26T01:39:34;6.80;99.90
13848;DHT22;6994;49.752;6.094;2024-02-26T01:42:01;6.80;99.90
13848;DHT22;6994;49.752;6.094;2024-02-26T01:44:28;6.80;99.90
13848;DHT22;6994;49.752;6.094;2024-02-26T01:46:56;6.70;99.90
13848;DHT22;6994;49.752;6.094;2024-02-26T01:49:23;6.70;99.90
13848;DHT22;6994;49.752;6.094;2024-02-26T01:51:50;6.70;99.90
13848;DHT22;6994;49.752;6.094;2024-02-26T01:54:17;6.70;99.90
13848;DHT22;6994;49.752;6.094;2024-02-26T01:56:44;6.60;99.90
13848;DHT22;6994;49.752;6.094;2024-02-26T01:59:12;6.80;99.90
13848;DHT22;6994;49.752;6.094;2024-02-26T02:01:39;6.90;99.90
13848;DHT22;6994;49.752;6.094;2024-02-26T02:04:06;6.90;99.90
13848;DHT22;6994;49.752;6.094;2024-02-26T02:06:33;6.80;99.90
13848;DHT22;6994;49.752;6.094;2024-02-26T02:09:00;6.80;99.90
13848;DHT22;6994;49.752;6.094;2024-02-26T02:11:28;6.70;99.90
13848;DHT22;6994;49.752;6.094;2024-02-26T02:13:55;6.70;99.90
13848;DHT22;6994;49.752;6.094;2024-02-26T02:16:22;6.60;99.90
13848;DHT22;6994;49.752;6.094;2024-02-26T02:18:49;6.60;99.90
13848;DHT22;6994;49.752;6.094;2024-02-26T02:21:16;6.60;99.90
13848;DHT22;6994;49.752;6.094;2024-02-26T02:23:44;6.50;99.90
13848;DHT22;6994;49.752;6.094;2024-02-26T02:26:11;6.50;99.90
13848;DHT22;6994;49.752;6.094;2024-02-26T02:28:38;6.50;99.90
13848;DHT22;6994;49.752;6.094;2024-02-26T02:31:05;6.50;99.90
13848;DHT22;6994;49.752;6.094;2024-02-26T02:33:33;6.50;99.90
13848;DHT22;6994;49.752;6.094;2024-02-26T02:36:00;6.70;99.90
13848;DHT22;6994;49.752;6.094;2024-02-26T02:38:27;6.80;99.90
13848;DHT22;6994;49.752;6.094;2024-02-26T02:40:54;7.00;99.90
13848;DHT22;6994;49.752;6.094;2024-02-26T02:43:21;7.10;99.90
13848;DHT22;6994;49.752;6.094;2024-02-26T02:45:48;7.20;99.90
13848;DHT22;6994;49.752;6.094;2024-02-26T02:48:16;7.20;99.90
13848;DHT22;6994;49.752;6.094;2024-02-26T02:50:43;7.40;99.90
13848;DHT22;6994;49.752;6.094;2024-02-26T02:53:10;7.30;99.90
13848;DHT22;6994;49.752;6.094;2024-02-26T02:55:37;7.20;99.90
13848;DHT22;6994;49.752;6.094;2024-02-26T02:58:04;7.10;99.90
13848;DHT22;6994;49.752;6.094;2024-02-26T03:00:32;6.90;99.90
13848;DHT22;6994;49.752;6.094;2024-02-26T03:02:59;6.80;99.90
13848;DHT22;6994;49.752;6.094;2024-02-26T03:05:26;6.70;99.90
13848;DHT22;6994;49.752;6.094;2024-02-26T03:07:53;6.70;99.90
13848;DHT22;6994;49.752;6.094;2024-02-26T03:10:20;6.90;99.90
13848;DHT22;6994;49.752;6.094;2024-02-26T03:12:48;6.90;99.90
13848;DHT22;6994;49.752;6.094;2024-02-26T03:15:15;6.90;99.90
13848;DHT22;6994;49.752;6.094;2024-02-26T03:17:42;6.80;99.90
13848;DHT22;6994;49.752;6.094;2024-02-26T03:20:09;6.80;99.90
13848;DHT22;6994;49.752;6.094;2024-02-26T03:22:38;6.70;99.90
13848;DHT22;6994;49.752;6.094;2024-02-26T03:25:05;6.70;99.90
13848;DHT22;6994;49.752;6.094;2024-02-26T03:27:32;6.70;99.90
13848;DHT22;6994;49.752;6.094;2024-02-26T03:29:59;6.60;99.90
13848;DHT22;6994;49.752;6.094;2024-02-26T03:32:26;6.60;99.90
13848;DHT22;6994;49.752;6.094;2024-02-26T03:34:53;6.60;99.90
13848;DHT22;6994;49.752;6.094;2024-02-26T03:37:21;6.60;99.90
13848;DHT22;6994;49.752;6.094;2024-02-26T03:39:48;6.60;99.90
13848;DHT22;6994;49.752;6.094;2024-02-26T03:42:15;6.80;99.90
13848;DHT22;6994;49.752;6.094;2024-02-26T03:44:42;6.90;99.90
13848;DHT22;6994;49.752;6.094;2024-02-26T03:47:09;6.90;99.90
13848;DHT22;6994;49.752;6.094;2024-02-26T03:49:37;6.90;99.90
13848;DHT22;6994;49.752;6.094;2024-02-26T03:52:04;6.90;99.90
13848;DHT22;6994;49.752;6.094;2024-02-26T03:54:31;6.90;99.90
13848;DHT22;6994;49.752;6.094;2024-02-26T03:56:59;6.90;99.90
13848;DHT22;6994;49.752;6.094;2024-02-26T03:59:26;6.90;99.90
13848;DHT22;6994;49.752;6.094;2024-02-26T04:01:53;6.90;99.90
13848;DHT22;6994;49.752;6.094;2024-02-26T04:04:21;6.90;99.90
13848;DHT22;6994;49.752;6.094;2024-02-26T04:06:48;6.90;99.90
13848;DHT22;6994;49.752;6.094;2024-02-26T04:09:15;6.90;99.90
13848;DHT22;6994;49.752;6.094;2024-02-26T04:11:42;6.90;99.90
13848;DHT22;6994;49.752;6.094;2024-02-26T04:14:12;6.90;99.90
13848;DHT22;6994;49.752;6.094;2024-02-26T04:16:39;6.90;99.90
13848;DHT22;6994;49.752;6.094;2024-02-26T04:19:06;7.10;99.90
13848;DHT22;6994;49.752;6.094;2024-02-26T04:21:34;7.20;99.90
13848;DHT22;6994;49.752;6.094;2024-02-26T04:24:01;7.20;99.90
13848;DHT22;6994;49.752;6.094;2024-02-26T04:26:28;7.20;99.90
13848;DHT22;6994;49.752;6.094;2024-02-26T04:28:55;7.20;99.90
13848;DHT22;6994;49.752;6.094;2024-02-26T04:31:22;7.20;99.90
13848;DHT22;6994;49.752;6.094;2024-02-26T04:33:49;7.20;99.90
13848;DHT22;6994;49.752;6.094;2024-02-26T04:36:17;7.20;99.90
13848;DHT22;6994;49.752;6.094;2024-02-26T04:38:44;7.40;99.90
13848;DHT22;6994;49.752;6.094;2024-02-26T04:41:11;7.40;99.90
13848;DHT22;6994;49.752;6.094;2024-02-26T04:43:38;7.40;99.90
13848;DHT22;6994;49.752;6.094;2024-02-26T04:46:08;7.30;99.90
13848;DHT22;6994;49.752;6.094;2024-02-26T04:48:38;7.30;99.90
13848;DHT22;6994;49.752;6.094;2024-02-26T04:51:05;7.20;99.90
13848;DHT22;6994;49.752;6.094;2024-02-26T04:53:33;7.20;99.90
13848;DHT22;6994;49.752;6.094;2024-02-26T04:56:01;7.20;99.90
13848;DHT22;6994;49.752;6.094;2024-02-26T04:58:29;7.20;99.90
13848;DHT22;6994;49.752;6.094;2024-02-26T05:00:56;7.10;99.90
13848;DHT22;6994;49.752;6.094;2024-02-26T05:03:24;7.20;99.90
13848;DHT22;6994;49.752;6.094;2024-02-26T05:05:51;7.10;99.90
13848;DHT22;6994;49.752;6.094;2024-02-26T05:08:18;7.10;99.90
13848;DHT22;6994;49.752;6.094;2024-02-26T05:10:45;7.10;99.90
13848;DHT22;6994;49.752;6.094;2024-02-26T05:13:12;7.10;99.90
13848;DHT22;6994;49.752;6.094;2024-02-26T05:15:40;7.10;99.90
13848;DHT22;6994;49.752;6.094;2024-02-26T05:18:07;7.10;99.90
13848;DHT22;6994;49.752;6.094;2024-02-26T05:20:34;7.10;99.90
13848;DHT22;6994;49.752;6.094;2024-02-26T05:23:01;7.10;99.90
13848;DHT22;6994;49.752;6.094;2024-02-26T05:25:28;7.10;99.90
13848;DHT22;6994;49.752;6.094;2024-02-26T05:27:56;7.20;99.90
13848;DHT22;6994;49.752;6.094;2024-02-26T05:30:23;7.20;99.90
13848;DHT22;6994;49.752;6.094;2024-02-26T05:32:50;7.20;99.90
13848;DHT22;6994;49.752;6.094;2024-02-26T05:35:17;7.20;99.90
13848;DHT22;6994;49.752;6.094;2024-02-26T05:37:44;7.20;99.90
13848;DHT22;6994;49.752;6.094;2024-02-26T05:40:12;7.20;99.90
13848;DHT22;6994;49.752;6.094;2024-02-26T05:42:39;7.20;99.90
13848;DHT22;6994;49.752;6.094;2024-02-26T05:45:07;7.10;99.90
13848;DHT22;6994;49.752;6.094;2024-02-26T05:47:34;7.10;99.90
13848;DHT22;6994;49.752;6.094;2024-02-26T05:50:02;7.10;99.90
13848;DHT22;6994;49.752;6.094;2024-02-26T05:52:29;7.30;99.90
13848;DHT22;6994;49.752;6.094;2024-02-26T05:54:59;7.30;99.90
13848;DHT22;6994;49.752;6.094;2024-02-26T05:57:27;7.30;99.90
13848;DHT22;6994;49.752;6.094;2024-02-26T05:59:55;7.30;99.90
13848;DHT22;6994;49.752;6.094;2024-02-26T06:02:22;7.30;99.90
13848;DHT22;6994;49.752;6.094;2024-02-26T06:04:49;7.30;99.90
13848;DHT22;6994;49.752;6.094;2024-02-26T06:07:16;7.30;99.90
13848;DHT22;6994;49.752;6.094;2024-02-26T06:09:43;7.30;99.90
13848;DHT22;6994;49.752;6.094;2024-02-26T06:12:11;7.30;99.90
13848;DHT22;6994;49.752;6.094;2024-02-26T06:14:38;7.30;99.90
13848;DHT22;6994;49.752;6.094;2024-02-26T06:17:05;7.30;99.90
13848;DHT22;6994;49.752;6.094;2024-02-26T06:19:32;7.30;99.90
13848;DHT22;6994;49.752;6.094;2024-02-26T06:22:00;7.30;99.90
13848;DHT22;6994;49.752;6.094;2024-02-26T06:24:27;7.30;99.90
13848;DHT22;6994;49.752;6.094;2024-02-26T06:26:55;7.30;99.90
13848;DHT22;6994;49.752;6.094;2024-02-26T06:29:22;7.30;99.90
13848;DHT22;6994;49.752;6.094;2024-02-26T06:31:49;7.30;99.90
13848;DHT22;6994;49.752;6.094;2024-02-26T06:34:16;7.30;99.90
13848;DHT22;6994;49.752;6.094;2024-02-26T06:36:43;7.40;99.90
13848;DHT22;6994;49.752;6.094;2024-02-26T06:39:11;7.40;99.90
13848;DHT22;6994;49.752;6.094;2024-02-26T06:41:38;7.40;99.90
13848;DHT22;6994;49.752;6.094;2024-02-26T06:44:05;7.40;99.90
13848;DHT22;6994;49.752;6.094;2024-02-26T06:46:32;7.40;99.90
13848;DHT22;6994;49.752;6.094;2024-02-26T06:48:59;7.40;99.90
13848;DHT22;6994;49.752;6.094;2024-02-26T06:51:27;7.40;99.90
13848;DHT22;6994;49.752;6.094;2024-02-26T06:53:54;7.40;99.90
13848;DHT22;6994;49.752;6.094;2024-02-26T06:56:21;7.40;99.90
13848;DHT22;6994;49.752;6.094;2024-02-26T06:58:48;7.50;99.90
13848;DHT22;6994;49.752;6.094;2024-02-26T07:01:15;7.50;99.90
13848;DHT22;6994;49.752;6.094;2024-02-26T07:03:43;7.50;99.90
13848;DHT22;6994;49.752;6.094;2024-02-26T07:06:10;7.70;99.90
13848;DHT22;6994;49.752;6.094;2024-02-26T07:08:37;7.80;99.90
13848;DHT22;6994;49.752;6.094;2024-02-26T07:11:07;8.00;99.90
13848;DHT22;6994;49.752;6.094;2024-02-26T07:13:31;8.00;99.90
13848;DHT22;6994;49.752;6.094;2024-02-26T07:15:59;8.20;99.90
13848;DHT22;6994;49.752;6.094;2024-02-26T07:18:26;8.20;99.90
13848;DHT22;6994;49.752;6.094;2024-02-26T07:20:53;8.10;99.90
13848;DHT22;6994;49.752;6.094;2024-02-26T07:23:20;8.10;99.90
13848;DHT22;6994;49.752;6.094;2024-02-26T07:25:47;8.00;99.90
13848;DHT22;6994;49.752;6.094;2024-02-26T07:28:15;7.90;99.90
13848;DHT22;6994;49.752;6.094;2024-02-26T07:30:42;7.90;99.90
13848;DHT22;6994;49.752;6.094;2024-02-26T07:33:09;7.90;99.90
13848;DHT22;6994;49.752;6.094;2024-02-26T07:35:36;7.90;99.90
13848;DHT22;6994;49.752;6.094;2024-02-26T07:38:04;7.90;99.90
13848;DHT22;6994;49.752;6.094;2024-02-26T07:40:31;7.90;99.90
13848;DHT22;6994;49.752;6.094;2024-02-26T07:42:58;7.90;99.90
13848;DHT22;6994;49.752;6.094;2024-02-26T07:45:25;8.10;99.90
13848;DHT22;6994;49.752;6.094;2024-02-26T07:47:52;8.10;99.90
13848;DHT22;6994;49.752;6.094;2024-02-26T07:50:19;8.10;99.90
13848;DHT22;6994;49.752;6.094;2024-02-26T07:52:47;8.10;99.90
13848;DHT22;6994;49.752;6.094;2024-02-26T07:55:14;8.00;99.90
13848;DHT22;6994;49.752;6.094;2024-02-26T07:57:44;7.90;99.90
13848;DHT22;6994;49.752;6.094;2024-02-26T08:00:12;8.10;99.90
13848;DHT22;6994;49.752;6.094;2024-02-26T08:02:39;8.10;99.90
13848;DHT22;6994;49.752;6.094;2024-02-26T08:05:07;8.10;99.90
13848;DHT22;6994;49.752;6.094;2024-02-26T08:07:34;8.00;99.90
13848;DHT22;6994;49.752;6.094;2024-02-26T08:10:01;8.20;99.90
13848;DHT22;6994;49.752;6.094;2024-02-26T08:12:28;8.20;99.90
13848;DHT22;6994;49.752;6.094;2024-02-26T08:14:55;8.40;99.90
13848;DHT22;6994;49.752;6.094;2024-02-26T08:17:23;8.40;99.90
13848;DHT22;6994;49.752;6.094;2024-02-26T08:19:50;8.30;99.90
13848;DHT22;6994;49.752;6.094;2024-02-26T08:22:17;8.20;99.90
13848;DHT22;6994;49.752;6.094;2024-02-26T08:24:44;8.20;99.90
13848;DHT22;6994;49.752;6.094;2024-02-26T08:27:11;8.10;99.90
13848;DHT22;6994;49.752;6.094;2024-02-26T08:29:39;8.30;99.90
13848;DHT22;6994;49.752;6.094;2024-02-26T08:32:06;8.60;99.90
13848;DHT22;6994;49.752;6.094;2024-02-26T08:34:33;8.80;99.90
13848;DHT22;6994;49.752;6.094;2024-02-26T08:37:01;8.80;99.90
13848;DHT22;6994;49.752;6.094;2024-02-26T08:39:28;8.80;99.90
13848;DHT22;6994;49.752;6.094;2024-02-26T08:41:55;8.70;99.90
13848;DHT22;6994;49.752;6.094;2024-02-26T08:44:23;8.70;99.90
13848;DHT22;6994;49.752;6.094;2024-02-26T08:46:51;8.70;99.90
13848;DHT22;6994;49.752;6.094;2024-02-26T08:49:18;8.70;99.90
13848;DHT22;6994;49.752;6.094;2024-02-26T08:51:45;8.70;99.90
13848;DHT22;6994;49.752;6.094;2024-02-26T08:54:12;8.80;99.90
13848;DHT22;6994;49.752;6.094;2024-02-26T08:56:39;8.80;99.90
13848;DHT22;6994;49.752;6.094;2024-02-26T08:59:07;8.80;99.90
13848;DHT22;6994;49.752;6.094;2024-02-26T09:01:34;9.10;99.90
13848;DHT22;6994;49.752;6.094;2024-02-26T09:04:01;9.20;99.90
13848;DHT22;6994;49.752;6.094;2024-02-26T09:06:28;9.20;99.90
13848;DHT22;6994;49.752;6.094;2024-02-26T09:08:55;9.10;99.90
13848;DHT22;6994;49.752;6.094;2024-02-26T09:11:23;9.10;99.90
13848;DHT22;6994;49.752;6.094;2024-02-26T09:13:50;9.00;99.90
13848;DHT22;6994;49.752;6.094;2024-02-26T09:16:17;8.90;99.90
13848;DHT22;6994;49.752;6.094;2024-02-26T09:18:44;8.90;99.90
13848;DHT22;6994;49.752;6.094;2024-02-26T09:21:11;8.90;99.90
13848;DHT22;6994;49.752;6.094;2024-02-26T09:23:39;8.90;99.90
13848;DHT22;6994;49.752;6.094;2024-02-26T09:26:06;8.90;99.90
13848;DHT22;6994;49.752;6.094;2024-02-26T09:28:33;8.90;99.90
13848;DHT22;6994;49.752;6.094;2024-02-26T09:31:00;8.90;99.90
13848;DHT22;6994;49.752;6.094;2024-02-26T09:33:27;9.00;99.90
13848;DHT22;6994;49.752;6.094;2024-02-26T09:35:55;9.00;99.90
13848;DHT22;6994;49.752;6.094;2024-02-26T09:38:22;9.10;99.90
13848;DHT22;6994;49.752;6.094;2024-02-26T09:40:49;9.20;99.90
13848;DHT22;6994;49.752;6.094;2024-02-26T09:43:16;9.30;99.90
13848;DHT22;6994;49.752;6.094;2024-02-26T09:45:43;9.40;99.90
13848;DHT22;6994;49.752;6.094;2024-02-26T09:48:11;9.50;99.90
13848;DHT22;6994;49.752;6.094;2024-02-26T09:50:38;9.60;99.90
13848;DHT22;6994;49.752;6.094;2024-02-26T09:53:05;9.70;99.90
13848;DHT22;6994;49.752;6.094;2024-02-26T09:55:32;9.90;99.90
13848;DHT22;6994;49.752;6.094;2024-02-26T09:57:59;10.00;99.90
13848;DHT22;6994;49.752;6.094;2024-02-26T10:00:27;10.20;99.90
13848;DHT22;6994;49.752;6.094;2024-02-26T10:02:54;10.30;99.90
13848;DHT22;6994;49.752;6.094;2024-02-26T10:05:21;10.40;99.90
13848;DHT22;6994;49.752;6.094;2024-02-26T10:07:48;10.50;99.90
13848;DHT22;6994;49.752;6.094;2024-02-26T10:10:15;10.60;99.90
13848;DHT22;6994;49.752;6.094;2024-02-26T10:12:43;10.70;99.90
13848;DHT22;6994;49.752;6.094;2024-02-26T10:15:10;10.80;99.90
13848;DHT22;6994;49.752;6.094;2024-02-26T10:17:37;10.80;99.90
13848;DHT22;6994;49.752;6.094;2024-02-26T10:20:14;10.90;99.90
13848;DHT22;6994;49.752;6.094;2024-02-26T10:22:50;11.20;99.90
13848;DHT22;6994;49.752;6.094;2024-02-26T10:25:17;11.20;99.90
13848;DHT22;6994;49.752;6.094;2024-02-26T10:27:45;11.20;99.90
13848;DHT22;6994;49.752;6.094;2024-02-26T10:30:15;11.20;99.90
13848;DHT22;6994;49.752;6.094;2024-02-26T10:32:42;11.10;99.90
13848;DHT22;6994;49.752;6.094;2024-02-26T10:35:09;11.00;99.90
13848;DHT22;6994;49.752;6.094;2024-02-26T10:37:37;10.90;99.90
13848;DHT22;6994;49.752;6.094;2024-02-26T10:40:04;11.20;99.90
13848;DHT22;6994;49.752;6.094;2024-02-26T10:42:31;11.30;99.90
13848;DHT22;6994;49.752;6.094;2024-02-26T10:44:58;11.70;99.90
13848;DHT22;6994;49.752;6.094;2024-02-26T10:47:26;12.10;99.90
13848;DHT22;6994;49.752;6.094;2024-02-26T10:49:53;12.50;99.90
13848;DHT22;6994;49.752;6.094;2024-02-26T10:52:20;12.40;99.90
13848;DHT22;6994;49.752;6.094;2024-02-26T10:54:47;12.40;99.90
13848;DHT22;6994;49.752;6.094;2024-02-26T10:57:15;12.40;99.90
13848;DHT22;6994;49.752;6.094;2024-02-26T10:59:43;12.50;99.90
13848;DHT22;6994;49.752;6.094;2024-02-26T11:02:10;12.50;99.90
13848;DHT22;6994;49.752;6.094;2024-02-26T11:04:38;12.50;99.90
13848;DHT22;6994;49.752;6.094;2024-02-26T11:07:05;12.50;99.90
13848;DHT22;6994;49.752;6.094;2024-02-26T11:09:32;12.60;99.90
13848;DHT22;6994;49.752;6.094;2024-02-26T11:11:59;12.90;99.90
13848;DHT22;6994;49.752;6.094;2024-02-26T11:14:26;12.90;99.90
13848;DHT22;6994;49.752;6.094;2024-02-26T11:16:54;12.90;99.90
13848;DHT22;6994;49.752;6.094;2024-02-26T11:19:21;12.90;99.90
13848;DHT22;6994;49.752;6.094;2024-02-26T11:21:48;13.20;99.90
13848;DHT22;6994;49.752;6.094;2024-02-26T11:24:15;13.20;99.90
13848;DHT22;6994;49.752;6.094;2024-02-26T11:26:53;13.20;99.90
13848;DHT22;6994;49.752;6.094;2024-02-26T11:29:10;13.50;99.90
13848;DHT22;6994;49.752;6.094;2024-02-26T11:31:38;13.30;99.90
13848;DHT22;6994;49.752;6.094;2024-02-26T11:34:06;13.20;99.90
13848;DHT22;6994;49.752;6.094;2024-02-26T11:36:32;13.20;99.90
13848;DHT22;6994;49.752;6.094;2024-02-26T11:38:59;13.10;99.90
13848;DHT22;6994;49.752;6.094;2024-02-26T11:41:26;13.10;99.90
13848;DHT22;6994;49.752;6.094;2024-02-26T11:43:57;13.20;99.90
13848;DHT22;6994;49.752;6.094;2024-02-26T11:48:55;13.20;99.90
13848;DHT22;6994;49.752;6.094;2024-02-26T11:51:27;13.30;99.90
13848;DHT22;6994;49.752;6.094;2024-02-26T11:53:51;13.60;99.90
13848;DHT22;6994;49.752;6.094;2024-02-26T11:58:58;13.40;99.90
13848;DHT22;6994;49.752;6.094;2024-02-26T12:01:41;13.20;99.90
13848;DHT22;6994;49.752;6.094;2024-02-26T12:04:10;12.90;99.90
13848;DHT22;6994;49.752;6.094;2024-02-26T12:06:41;12.60;99.90
13848;DHT22;6994;49.752;6.094;2024-02-26T12:09:08;12.60;99.90
13848;DHT22;6994;49.752;6.094;2024-02-26T12:11:39;12.40;99.90
13848;DHT22;6994;49.752;6.094;2024-02-26T12:14:09;12.30;99.90
13848;DHT22;6994;49.752;6.094;2024-02-26T12:16:39;12.30;99.90
13848;DHT22;6994;49.752;6.094;2024-02-26T12:19:07;12.30;99.90
13848;DHT22;6994;49.752;6.094;2024-02-26T12:21:34;12.20;99.90
13848;DHT22;6994;49.752;6.094;2024-02-26T12:24:11;12.40;99.90
13848;DHT22;6994;49.752;6.094;2024-02-26T12:26:35;12.70;99.90
13848;DHT22;6994;49.752;6.094;2024-02-26T12:29:03;12.70;99.90
13848;DHT22;6994;49.752;6.094;2024-02-26T12:31:30;12.70;99.90
13848;DHT22;6994;49.752;6.094;2024-02-26T12:33:58;12.60;99.90
13848;DHT22;6994;49.752;6.094;2024-02-26T12:36:26;12.60;99.90
13848;DHT22;6994;49.752;6.094;2024-02-26T12:38:53;12.60;99.90
13848;DHT22;6994;49.752;6.094;2024-02-26T12:41:20;12.60;99.90
13848;DHT22;6994;49.752;6.094;2024-02-26T12:43:48;12.90;99.90
13848;DHT22;6994;49.752;6.094;2024-02-26T12:46:15;12.90;99.90
13848;DHT22;6994;49.752;6.094;2024-02-26T12:48:43;13.00;99.90
13848;DHT22;6994;49.752;6.094;2024-02-26T12:51:11;13.10;99.90
13848;DHT22;6994;49.752;6.094;2024-02-26T12:53:37;13.30;99.90
13848;DHT22;6994;49.752;6.094;2024-02-26T12:56:05;13.20;99.90
13848;DHT22;6994;49.752;6.094;2024-02-26T12:58:32;13.10;99.90
13848;DHT22;6994;49.752;6.094;2024-02-26T13:00:59;13.10;99.90
13848;DHT22;6994;49.752;6.094;2024-02-26T13:03:26;13.00;99.90
13848;DHT22;6994;49.752;6.094;2024-02-26T13:05:53;13.30;99.90
13848;DHT22;6994;49.752;6.094;2024-02-26T13:08:21;13.30;99.90
13848;DHT22;6994;49.752;6.094;2024-02-26T13:10:48;13.60;99.90
13848;DHT22;6994;49.752;6.094;2024-02-26T13:13:15;13.50;99.90
13848;DHT22;6994;49.752;6.094;2024-02-26T13:15:42;13.40;99.90
13848;DHT22;6994;49.752;6.094;2024-02-26T13:18:12;13.30;99.90
13848;DHT22;6994;49.752;6.094;2024-02-26T13:20:39;13.20;99.90
13848;DHT22;6994;49.752;6.094;2024-02-26T13:23:12;13.10;99.90
13848;DHT22;6994;49.752;6.094;2024-02-26T13:25:39;12.90;99.90
13848;DHT22;6994;49.752;6.094;2024-02-26T13:28:18;12.70;99.90
13848;DHT22;6994;49.752;6.094;2024-02-26T13:30:55;12.80;99.90
13848;DHT22;6994;49.752;6.094;2024-02-26T13:33:21;12.60;99.90
13848;DHT22;6994;49.752;6.094;2024-02-26T13:35:48;12.60;99.90
13848;DHT22;6994;49.752;6.094;2024-02-26T13:38:15;12.70;99.90
13848;DHT22;6994;49.752;6.094;2024-02-26T13:40:43;12.50;99.90
13848;DHT22;6994;49.752;6.094;2024-02-26T13:43:10;12.60;99.90
13848;DHT22;6994;49.752;6.094;2024-02-26T13:45:37;12.40;99.90
13848;DHT22;6994;49.752;6.094;2024-02-26T13:48:05;12.20;99.90
13848;DHT22;6994;49.752;6.094;2024-02-26T13:50:31;12.10;99.90
13848;DHT22;6994;49.752;6.094;2024-02-26T13:52:59;12.00;99.90
13848;DHT22;6994;49.752;6.094;2024-02-26T13:55:26;12.20;99.90
13848;DHT22;6994;49.752;6.094;2024-02-26T13:57:54;12.30;99.90
13848;DHT22;6994;49.752;6.094;2024-02-26T14:00:20;12.50;99.90
13848;DHT22;6994;49.752;6.094;2024-02-26T14:02:47;12.60;99.90
13848;DHT22;6994;49.752;6.094;2024-02-26T14:05:15;12.60;99.90
13848;DHT22;6994;49.752;6.094;2024-02-26T14:07:42;12.60;99.90
13848;DHT22;6994;49.752;6.094;2024-02-26T14:10:11;12.60;99.90
13848;DHT22;6994;49.752;6.094;2024-02-26T14:12:36;12.60;99.90
13848;DHT22;6994;49.752;6.094;2024-02-26T14:15:03;12.50;99.90
13848;DHT22;6994;49.752;6.094;2024-02-26T14:17:31;12.60;99.90
13848;DHT22;6994;49.752;6.094;2024-02-26T14:19:58;12.50;99.90
13848;DHT22;6994;49.752;6.094;2024-02-26T14:22:25;12.40;99.90
13848;DHT22;6994;49.752;6.094;2024-02-26T14:24:55;12.30;99.90
13848;DHT22;6994;49.752;6.094;2024-02-26T14:27:22;12.20;99.90
13848;DHT22;6994;49.752;6.094;2024-02-26T14:29:49;12.50;99.90
13848;DHT22;6994;49.752;6.094;2024-02-26T14:32:17;12.50;99.90
13848;DHT22;6994;49.752;6.094;2024-02-26T14:34:45;12.30;99.90
13848;DHT22;6994;49.752;6.094;2024-02-26T14:37:13;12.20;99.90
13848;DHT22;6994;49.752;6.094;2024-02-26T14:39:41;12.10;99.90
13848;DHT22;6994;49.752;6.094;2024-02-26T14:42:08;12.00;99.90
13848;DHT22;6994;49.752;6.094;2024-02-26T14:44:36;11.90;99.90
13848;DHT22;6994;49.752;6.094;2024-02-26T14:47:04;11.90;99.90
13848;DHT22;6994;49.752;6.094;2024-02-26T14:49:31;11.80;99.90
13848;DHT22;6994;49.752;6.094;2024-02-26T14:51:59;11.60;99.90
13848;DHT22;6994;49.752;6.094;2024-02-26T14:54:26;11.60;99.90
13848;DHT22;6994;49.752;6.094;2024-02-26T14:56:53;11.50;99.90
13848;DHT22;6994;49.752;6.094;2024-02-26T14:59:21;11.40;99.90
13848;DHT22;6994;49.752;6.094;2024-02-26T15:01:48;11.40;99.90
13848;DHT22;6994;49.752;6.094;2024-02-26T15:04:15;11.40;99.90
13848;DHT22;6994;49.752;6.094;2024-02-26T15:06:42;11.40;99.90
13848;DHT22;6994;49.752;6.094;2024-02-26T15:09:09;11.40;99.90
13848;DHT22;6994;49.752;6.094;2024-02-26T15:11:40;11.40;99.90
13848;DHT22;6994;49.752;6.094;2024-02-26T15:14:07;11.40;99.90
13848;DHT22;6994;49.752;6.094;2024-02-26T15:16:35;11.40;99.90
13848;DHT22;6994;49.752;6.094;2024-02-26T15:19:02;11.40;99.90
13848;DHT22;6994;49.752;6.094;2024-02-26T15:21:29;11.50;99.90
13848;DHT22;6994;49.752;6.094;2024-02-26T15:23:56;11.50;99.90
13848;DHT22;6994;49.752;6.094;2024-02-26T15:26:24;11.50;99.90
13848;DHT22;6994;49.752;6.094;2024-02-26T15:28:51;11.50;99.90
13848;DHT22;6994;49.752;6.094;2024-02-26T15:31:19;11.50;99.90
13848;DHT22;6994;49.752;6.094;2024-02-26T15:33:46;11.50;99.90
13848;DHT22;6994;49.752;6.094;2024-02-26T15:36:14;11.50;99.90
13848;DHT22;6994;49.752;6.094;2024-02-26T15:38:42;11.50;99.90
13848;DHT22;6994;49.752;6.094;2024-02-26T15:41:13;11.50;99.90
13848;DHT22;6994;49.752;6.094;2024-02-26T15:43:40;11.50;99.90
13848;DHT22;6994;49.752;6.094;2024-02-26T15:46:07;11.70;99.90
13848;DHT22;6994;49.752;6.094;2024-02-26T15:48:37;11.80;99.90
13848;DHT22;6994;49.752;6.094;2024-02-26T15:51:04;11.80;99.90
13848;DHT22;6994;49.752;6.094;2024-02-26T15:53:32;11.70;99.90
13848;DHT22;6994;49.752;6.094;2024-02-26T15:55:59;11.60;99.90
13848;DHT22;6994;49.752;6.094;2024-02-26T15:58:26;11.60;99.90
13848;DHT22;6994;49.752;6.094;2024-02-26T16:00:53;11.70;99.90